Oscar Dyson — WTEP — position and weather

sailwx.info

Track history (hours):
 
Tides and Currents Weather Stations Pressure Air Temp Water Temp Dewpoint Dewpoint Depression Visibility Wind Speed Wind Dir Waves Ship Positions

Oceanographic research ship Oscar Dyson (USA)

Ship's website: http://www.moc.noaa.gov/od/

Detailed information on ship capabilities available from University of Delaware's Ocean Information Center and ARCUS's ALIAS (Arctic Logistics Information and Support) project.

Last reported at 2017-Mar-23 19:00 UTC. Time now 2017-Mar-23 20:21 UTC.
Position N 55°30' W 155°54'.

Type: Ship. MMSI: 369959000.

Wind from 350 at 21 knots

Barometer 1011.1 mb
Air temperature 0.6 ° C
Dewpoint -6.5 ° C
Water temperature 4.5 ° C

Date/timePositionNaut miles runAvg speedWind from/ knotsBaromVisibWave heightAir tempDewpointWater temp
2017-Mar-23 19:00N 55°30' W 155°54'320.4 350 / 211011.1 0.6-6.5 4.5
2017-Mar-23 18:50N 55°30' W 155°48'6 7.2 350 / 22 0.8 4.5
2017-Mar-23 18:00N 55°36' W 155°48'745.2 340 / 241009.110.8 1.1-6.6-3.1
2017-Mar-23 17:51N 55°36' W 156°00'1213.9 330 / 23 0.1 3.1
2017-Mar-23 17:00N 55°42' W 156°18'0 0.0 330 / 211010.8 -0.8-8.3 3.2
2017-Mar-23 16:52N 55°42' W 156°18'910.4 340 / 21 -0.6 3.3
2017-Mar-23 16:00N 55°48' W 156°30'645.0 340 / 211010.9 -0.9-7.2 3.2
2017-Mar-23 15:52N 55°42' W 156°30'6 6.9 330 / 23 -0.7 3.3
2017-Mar-23 15:00N 55°48' W 156°30'651.4 330 / 211010.7 -1.0-8.5 3.4
2017-Mar-23 14:53N 55°42' W 156°30'3 3.8 340 / 21 -1.1 3.4
2017-Mar-23 14:00N 55°42' W 156°24'333.8 340 / 201010.1 -1.4-8.1 3.4
2017-Mar-23 13:54N 55°42' W 156°18'1213.1 330 / 19 -1.4 3.3
2017-Mar-23 13:00N 55°48' W 156°36'0 0.0 330 / 251010.1 -1.3-8.1 3.4
2017-Mar-23 12:55N 55°48' W 156°36'1516.1 340 / 24 -1.1 3.4
2017-Mar-23 12:00N 55°54' W 157°00'672.0 330 / 261010.3 -1.7-8.2 3.1
2017-Mar-23 11:55N 55°48' W 157°00'1212.8 340 / 28 -1.7 3.1
2017-Mar-23 11:00N 55°54' W 156°42'350.5 340 / 241009.2 -1.8-7.8 3.2
2017-Mar-23 10:56N 55°54' W 156°36'7 7.2 350 / 23 -1.6 3.3
2017-Mar-23 10:00N 55°54' W 156°24'7137.6 350 / 181009.2 -1.8-7.9 3.2
2017-Mar-23 09:57N 55°48' W 156°18'1010.7 350 / 20 -1.9 3.3
2017-Mar-23 09:00N 55°48' W 156°00'0 0.0 340 / 181008.5 -0.8-8.1 4.1
2017-Mar-23 08:58N 55°48' W 156°00'7 7.1 350 / 19 -0.7 4.1
2017-Mar-23 08:00N 55°54' W 156°06'0 0.0 340 / 151008.2 -0.9-8.5 3.3
2017-Mar-23 07:58N 55°54' W 156°06'1515.2 340 / 17 -0.9 3.3
2017-Mar-23 07:00N 56°00' W 156°30'0 0.0 320 / 201008.8 -2.3-8.1 3.3
2017-Mar-23 06:59N 56°00' W 156°30'1212.7 320 / 21 -2.3 3.3
2017-Mar-23 06:00N 56°12' W 156°36'1211.7 330 / 231008.1 -2.6-8.7 3.5
2017-Mar-23 05:00N 56°06' W 156°18'925.7 340 / 191007.8 -1.2-9.3 3.3
2017-Mar-23 04:39N 56°00' W 156°06'710.6 350 / 12 -0.3 3.1
2017-Mar-23 04:00N 56°06' W 156°00'310.0 030 / 91007.5 -0.9-5.9 3.3
2017-Mar-23 03:40N 56°06' W 155°54'913.5 030 / 10 -0.9 3.3
2017-Mar-23 03:00N 56°12' W 156°06'310.5 320 / 101007.2 -0.2-9.5 3.4
2017-Mar-23 02:41N 56°12' W 156°12'913.1 330 / 17 0.4 3.4
2017-Mar-23 02:00N 56°18' W 156°24'722.9 320 / 161007.4 -0.7-7.6 3.5
2017-Mar-23 01:42N 56°12' W 156°18'7 9.8 310 / 17 -0.8 3.6
2017-Mar-23 01:00N 56°18' W 156°24'722.9 320 / 161007.4 -1.0-8.1 3.5
2017-Mar-23 00:42N 56°12' W 156°18'0 0.0 330 / 13 -0.8 3.6
2017-Mar-23 00:00N 56°12' W 156°18'1211.7 330 / 151007.4 -0.1-8.6 3.2
2017-Mar-22 23:00N 56°18' W 156°36'312.5 330 / 171007.9 -0.7-8.5 3.5
2017-Mar-22 22:44N 56°18' W 156°42'1216.4 340 / 18 -1.7 3.3
2017-Mar-22 22:00N 56°30' W 156°42'935.8 330 / 181007.6 -1.8-9.1 3.3
2017-Mar-22 21:45N 56°24' W 156°30'7 8.9 340 / 16 -1.2 3.4
2017-Mar-22 21:00N 56°24' W 156°18'727.4 340 / 91007.7 -0.9-9.6 3.5
2017-Mar-22 20:45N 56°18' W 156°12'7 8.9 320 / 9 -0.8 3.4
2017-Mar-22 20:00N 56°18' W 156°00'728.5 360 / 121007.4 -0.2-7.6 3.3
2017-Mar-22 19:46N 56°18' W 155°48'7 8.9 360 / 17 -0.3 3.1
2017-Mar-22 19:00N 56°24' W 155°54'0 0.0 360 / 201007.3 -0.1-7.9 3.5
2017-Mar-22 18:47N 56°24' W 155°54'1214.8 010 / 18 -0.1 3.5
2017-Mar-22 18:00N 56°30' W 156°12'316.6 330 / 71007.9 0.8-8.7 3.4
2017-Mar-22 17:48N 56°30' W 156°06'0 0.0 330 / 6 -0.2 3.4
2017-Mar-22 17:00N 56°30' W 156°06'630.0 330 / 71008.0 -0.3-8.7 3.4
2017-Mar-22 16:48N 56°24' W 156°06'0 0.0 320 / 9 -0.3 3.4
2017-Mar-22 16:00N 56°24' W 156°06'318.1 360 / 151007.9 -0.1-9.4 3.4
2017-Mar-22 15:49N 56°24' W 156°00'911.0 350 / 18 -0.1 3.4
2017-Mar-22 15:00N 56°30' W 156°12'319.9 320 / 131006.910.8 -0.0-8.1-3.5
2017-Mar-22 14:50N 56°30' W 156°18'1213.9 320 / 13 -1.1 3.5
2017-Mar-22 14:00N 56°36' W 156°36'322.0 310 / 171009.1 -1.8-9.2 3.1
2017-Mar-22 13:51N 56°36' W 156°42'6 7.1 300 / 18 -1.9 3.3
2017-Mar-22 13:00N 56°42' W 156°42'324.7 310 / 181009.3 -1.9-9.9 3.3
2017-Mar-22 12:52N 56°42' W 156°36'7 7.6 290 / 14 -1.7 3.3
2017-Mar-22 12:00N 56°42' W 156°24'751.4 360 / 121009.510.8 -0.8-11.0 3.5
2017-Mar-22 11:52N 56°36' W 156°18'3 3.8 360 / 13 -0.8 3.4
2017-Mar-22 11:00N 56°36' W 156°12'328.3 350 / 121009.8 -0.7-9.0 3.3
2017-Mar-22 10:53N 56°36' W 156°06'0 0.0 340 / 13 -0.8 3.3
2017-Mar-22 10:00N 56°36' W 156°06'0 0.0 360 / 151010.2 -0.9-9.9 3.3
2017-Mar-22 09:54N 56°36' W 156°06'3 3.7 010 / 16 -1.0 3.3
2017-Mar-22 09:00N 56°36' W 156°12'0 0.0 330 / 121010.4 -1.2-8.6 3.3
2017-Mar-22 08:55N 56°36' W 156°12'1010.8 330 / 14 -1.4 3.3
2017-Mar-22 08:00N 56°36' W 155°54'7102.8 1010.1 -2.1-7.7 3.5
2017-Mar-22 07:56N 56°30' W 155°48'1212.4 360 / 24 -2.2 3.6
2017-Mar-22 07:00N 56°36' W 155°30'0 0.0 360 / 251010.5 -2.3-7.0 3.4
2017-Mar-22 06:56N 56°36' W 155°30'1212.4 360 / 25 -2.2 3.3
2017-Mar-22 06:00N 56°42' W 155°48'7136.9 350 / 261010.7 -2.6-7.5 3.4
2017-Mar-22 05:57N 56°36' W 155°42'1212.2 350 / 27 -2.8 3.4
2017-Mar-22 05:00N 56°42' W 156°00'0 0.0 010 / 241011.3 -3.4-9.4 3.0
2017-Mar-22 04:58N 56°42' W 156°00'0 0.0 020 / 23 -3.0 3.0
2017-Mar-22 04:00N 56°42' W 156°00'7410.8 010 / 241011.4 -3.2-9.5 3.4
2017-Mar-22 03:59N 56°36' W 155°54'7 7.0 010 / 23 -3.1 3.4
2017-Mar-22 03:00N 56°42' W 156°00'0 0.0 010 / 241011.3 -1.7-8.6 3.1
2017-Mar-22 02:59N 56°42' W 156°00'1414.7 010 / 26 -1.6 3.3
2017-Mar-22 02:00N 56°48' W 156°24'7 6.8 350 / 141012.4 -0.8-10.1 3.5
2017-Mar-22 01:00N 56°54' W 156°18'925.4 310 / 41012.6 -1.2-11.2 3.2
2017-Mar-22 00:39N 56°48' W 156°06'710.1 010 / 26 -2.7 3.2
2017-Mar-22 00:00N 56°48' W 155°54'10 9.9 1012.1 -3.6-9.5 3.1
2017-Mar-21 23:00N 56°48' W 155°36'721.6 350 / 271012.5 -3.9-8.8 3.4
2017-Mar-21 22:41N 56°42' W 155°30'6 8.8 350 / 11 -3.8 3.1
2017-Mar-21 22:00N 56°48' W 155°30'620.0 340 / 241012.8 -4.0-8.2 3.1
2017-Mar-21 21:42N 56°42' W 155°30'0 0.0 350 / 26 -4.1 3.1
2017-Mar-21 21:00N 56°42' W 155°30'0 0.0 340 / 141012.9 -3.9-8.2 3.3
2017-Mar-21 20:42N 56°42' W 155°30'3 4.7 330 / 28 -3.7 3.1
2017-Mar-21 20:00N 56°42' W 155°24'723.3 350 / 291012.2 -4.1-7.9 3.3
2017-Mar-21 19:43N 56°42' W 155°12'6 8.4 330 / 27 -3.5 3.5
2017-Mar-21 19:00N 56°48' W 155°12'312.3 340 / 271012.2 -3.2-7.1 3.4
2017-Mar-21 18:44N 56°48' W 155°18'1215.7 330 / 28 -4.0 3.3
2017-Mar-21 18:00N 56°54' W 155°36'0 0.0 340 / 281012.8 -4.5-9.1 3.4
2017-Mar-21 17:45N 56°54' W 155°36'7 8.7 340 / 29 -4.6 3.5
2017-Mar-21 17:00N 56°54' W 155°48'0 0.0 340 / 311012.9 -5.4-11.1 3.1
2017-Mar-21 16:45N 56°54' W 155°48'911.8 350 / 31 -4.9 3.1
2017-Mar-21 16:00N 57°00' W 156°00'0 0.0 340 / 281013.0 -3.7-10.9 3.0
2017-Mar-21 15:46N 57°00' W 156°00'7 8.9 340 / 29 -3.7 3.0
2017-Mar-21 15:00N 57°06' W 155°54'315.0 350 / 371010.010.8 -4.0-11.8-3.1
2017-Mar-21 14:47N 57°06' W 156°00'3 4.2 350 / 37 -5.7 3.0
2017-Mar-21 14:00N 57°06' W 155°54'731.5 340 / 371012.6 -5.9-11.4 3.3
2017-Mar-21 13:47N 57°00' W 155°48'7 8.3 340 / 32 -5.6 3.2
2017-Mar-21 13:00N 57°00' W 155°36'315.1 330 / 301013.0 -5.0-11.1 3.4
2017-Mar-21 12:47N 57°00' W 155°30'3 4.2 330 / 29 -5.3 3.3
2017-Mar-21 12:00N 57°00' W 155°24'0 0.0 330 / 281013.5 -5.1-9.6 3.3
2017-Mar-21 11:48N 57°00' W 155°24'7 8.2 330 / 27 -5.3 3.3
2017-Mar-21 11:00N 57°00' W 155°12'737.3 330 / 261013.1 -4.5-8.5 3.3
2017-Mar-21 10:49N 56°54' W 155°06'7 8.4 330 / 25 -4.3 3.2
2017-Mar-21 10:00N 57°00' W 155°00'319.6 320 / 251013.2 -3.5-8.3 3.6
2017-Mar-21 09:50N 57°00' W 154°54'1417.2 310 / 19 -3.4 3.5
2017-Mar-21 09:00N 57°06' W 155°18'0 0.0 310 / 221014.0 -4.4-8.7 3.3
2017-Mar-21 08:51N 57°06' W 155°18'1113.5 310 / 25 -4.5 3.1
2017-Mar-21 08:00N 57°12' W 155°36'321.7 310 / 311014.1 -5.5-10.0 3.0
2017-Mar-21 07:51N 57°12' W 155°42'1113.5 310 / 31 -5.5 3.1
2017-Mar-21 07:00N 57°18' W 156°00'645.0 310 / 341014.2 -5.8-11.0 3.0
2017-Mar-21 06:52N 57°12' W 156°00'910.2 310 / 35 -6.4 2.9
2017-Mar-21 06:00N 57°18' W 155°48'327.8 300 / 281013.9 -5.4-10.9 3.2
2017-Mar-21 05:53N 57°18' W 155°42'6 7.3 320 / 26 -4.7 3.1
2017-Mar-21 05:00N 57°18' W 155°30'768.2 320 / 291013.8 -4.5-11.8 3.1
2017-Mar-21 04:54N 57°12' W 155°24'7 7.6 320 / 27 -4.2 3.5
2017-Mar-21 04:00N 57°18' W 155°30'768.2 310 / 261014.0 -4.1-10.5 3.3
2017-Mar-21 03:54N 57°12' W 155°24'6 6.7 320 / 27 -4.3 3.4
2017-Mar-21 03:00N 57°18' W 155°24'672.0 320 / 251014.1 -3.7-10.6 3.3
2017-Mar-21 02:55N 57°12' W 155°24'3 3.5 320 / 14 -2.7 3.5
2017-Mar-21 02:00N 57°12' W 155°18'348.8 340 / 181014.2 -2.9-9.1 3.5
2017-Mar-21 01:56N 57°12' W 155°12'1010.4 340 / 13 -2.9 3.5
2017-Mar-21 01:00N 57°12' W 154°54'6120.0 350 / 201014.4 -3.3-7.8 3.3
2017-Mar-21 00:57N 57°06' W 154°54'1213.1 340 / 20 -2.6 3.3
2017-Mar-21 00:00N 57°18' W 155°00'1414.3 320 / 211015.0 -3.2-8.4 3.5
2017-Mar-20 23:00N 57°24' W 155°24'397.0 330 / 251015.2 -3.7-9.2 3.2
2017-Mar-20 22:58N 57°24' W 155°18'1414.7 330 / 25 -3.8 3.1
2017-Mar-20 22:00N 57°30' W 155°42'6360.0 320 / 211015.0 -4.6-12.6 3.3
2017-Mar-20 21:59N 57°24' W 155°42'1515.7 320 / 17 -4.2 3.2
2017-Mar-20 21:00N 57°36' W 155°24'718.6 350 / 271014.6 -6.7-11.5 3.0
2017-Mar-20 20:38N 57°30' W 155°18'913.9 340 / 28 -7.1 3.3
2017-Mar-20 20:00N 57°24' W 155°06'3 9.2 330 / 221014.6 -6.3-9.5 3.4
2017-Mar-20 19:39N 57°24' W 155°00'0 0.0 340 / 19 -6.2 3.4
2017-Mar-20 19:00N 57°24' W 155°00'3 9.7 320 / 161014.9 -5.6-8.8 3.4
2017-Mar-20 18:40N 57°24' W 154°54'0 0.0 320 / 16 -5.4 3.4
2017-Mar-20 18:00N 57°24' W 154°54'618.9 330 / 171014.7 -5.6-9.2 3.3
2017-Mar-20 17:41N 57°18' W 154°54'6 8.8 330 / 19 -5.0 3.3
2017-Mar-20 17:00N 57°24' W 154°54'721.5 340 / 161014.3 -5.8-9.6 3.3
2017-Mar-20 16:41N 57°18' W 154°48'1217.6 330 / 18 -5.4 3.4
2017-Mar-20 16:00N 57°30' W 154°48'310.7 280 / 101014.3 -4.8-8.7 3.5
2017-Mar-20 15:42N 57°30' W 154°54'912.6 300 / 10 -5.7 3.5
2017-Mar-20 15:00N 57°36' W 155°06'311.3 310 / 171014.3 -7.6-11.6 3.5
2017-Mar-20 14:43N 57°36' W 155°12'0 0.0 310 / 16 -8.6 3.3
2017-Mar-20 14:00N 57°36' W 155°12'0 0.0 300 / 311013.8 -8.6-12.7 3.2
2017-Mar-20 13:44N 57°36' W 155°12'3 4.4 320 / 31 -8.2 3.3
2017-Mar-20 13:00N 57°36' W 155°06'0 0.0 320 / 291013.6 -8.3-12.1 3.6
2017-Mar-20 12:45N 57°36' W 155°06'3 4.3 320 / 28 -8.3 3.6
2017-Mar-20 12:00N 57°36' W 155°00'312.9 320 / 301011.010.8 -5.0-10.9 3.6
2017-Mar-20 11:45N 57°36' W 155°06'0 0.0 320 / 26 -7.1 3.4
2017-Mar-20 11:00N 57°36' W 155°06'729.2 310 / 251013.6 -7.6-11.3 3.6
2017-Mar-20 10:46N 57°30' W 155°00'6 7.8 310 / 24 -7.0 3.6
2017-Mar-20 10:00N 57°36' W 155°00'627.7 310 / 221013.5 -6.0-10.5 3.6
2017-Mar-20 09:47N 57°30' W 155°00'1114.5 310 / 26 -6.9 3.6
2017-Mar-20 09:00N 57°36' W 155°18'0 0.0 310 / 211013.5 -8.4-13.6 2.1
2017-Mar-20 08:48N 57°36' W 155°18'911.0 310 / 35 -9.1 2.5
2017-Mar-20 08:00N 57°42' W 155°06'316.0 320 / 151013.2 -6.1-11.9 2.5
2017-Mar-20 07:48N 57°42' W 155°00'911.0 290 / 13 -5.6 2.7
2017-Mar-20 07:00N 57°36' W 154°48'317.5 310 / 61013.1 -5.4-11.5 3.5
2017-Mar-20 06:49N 57°36' W 154°42'6 7.9 290 / 7 -5.2 3.5
2017-Mar-20 06:00N 57°36' W 154°30'319.3 230 / 71012.8 -4.5-9.5 3.6
2017-Mar-20 05:50N 57°36' W 154°24'1113.6 210 / 9 -4.7 3.1
2017-Mar-20 05:00N 57°42' W 154°42'0 0.0 280 / 121012.3 -4.8-11.1 3.1
2017-Mar-20 04:51N 57°42' W 154°42'910.3 280 / 13 -5.0 2.4
2017-Mar-20 04:00N 57°48' W 154°54'0 0.0 290 / 131011.6 -5.4-13.1 2.3
2017-Mar-20 03:52N 57°48' W 154°54'3 3.7 290 / 11 -5.2 2.5
2017-Mar-20 03:00N 57°48' W 154°48'0 0.0 290 / 121011.2 -5.1-13.9 2.2
2017-Mar-20 02:52N 57°48' W 154°48'3 3.7 280 / 14 -5.3 2.2
2017-Mar-20 02:00N 57°48' W 154°54'0 0.0 290 / 141011.0 -4.8-13.0 2.4
2017-Mar-20 01:53N 57°48' W 154°54'7 7.7 270 / 16 -4.5 2.2
2017-Mar-20 01:00N 57°54' W 154°48'331.9 290 / 111010.4 -5.0-12.0 3.0
2017-Mar-20 00:54N 57°54' W 154°42'3 3.5 290 / 12 -4.9 3.0
2017-Mar-20 00:00N 57°54' W 154°48'3 3.2 280 / 141010.3 -6.1-12.1 1.8
2017-Mar-19 23:00N 57°54' W 154°42'0 0.0 280 / 151010.0 -6.0-11.1 2.9
2017-Mar-19 22:55N 57°54' W 154°42'3 3.5 290 / 14 -6.1 3.0
2017-Mar-19 22:00N 57°54' W 154°36'690.0 290 / 111009.8 -5.1-10.3 1.9
2017-Mar-19 21:56N 57°48' W 154°36'6 6.4 290 / 16 -5.0 3.1
2017-Mar-19 21:00N 57°54' W 154°36'6120.0 310 / 91009.310.8 -4.7-10.3 1.5
2017-Mar-19 20:57N 57°48' W 154°36'1010.1 300 / 9 -4.7 1.4
2017-Mar-19 20:00N 57°48' W 154°18'7204.0 140 / 51008.8 -4.6-8.7 3.6
2017-Mar-19 19:58N 57°42' W 154°12'7 7.0 130 / 4 -4.6 3.7
2017-Mar-19 19:00N 57°48' W 154°06'0 0.0 040 / 31008.3 -4.2-10.8 2.6
2017-Mar-19 18:59N 57°48' W 154°06'0 0.0 050 / 4 -4.4 3.0
2017-Mar-19 18:00N 57°48' W 154°06'0 0.0 040 / 81007.6 -4.6-9.8 2.8
2017-Mar-19 17:59N 57°48' W 154°06'3 3.3 050 / 6 -4.5 2.7
2017-Mar-19 17:00N 57°48' W 154°12'348.0 050 / 81006.9 -4.8-10.1 2.5
2017-Mar-19 16:56N 57°48' W 154°06'0 0.0 070 / 8 -4.9 2.5
2017-Mar-19 16:00N 57°48' W 154°06'0 0.0 060 / 71006.6 -4.7-10.3 3.1
2017-Mar-19 15:57N 57°48' W 154°06'9 9.2 060 / 8 -4.8 2.7
2017-Mar-19 15:00N 57°54' W 154°18'0 0.0 040 / 101006.3 -4.9-11.5 1.5
2017-Mar-19 14:57N 57°54' W 154°18'3 3.4 050 / 13 -4.8 1.5
2017-Mar-19 14:00N 57°54' W 154°24'395.7 070 / 121005.7 -5.1-11.1 1.2
2017-Mar-19 13:58N 57°54' W 154°18'6 6.6 080 / 11 -5.0 1.2
2017-Mar-19 13:00N 57°54' W 154°30'3191.3 100 / 131005.6 -4.5-10.9 1.1
2017-Mar-19 12:59N 57°54' W 154°24'7 6.9 090 / 14 -4.5 1.1
2017-Mar-19 12:00N 58°00' W 154°30'9 8.7 090 / 101005.1 -4.3-10.1 0.7
2017-Mar-19 11:00N 58°06' W 154°18'925.0 050 / 101005.0 -5.0-9.8 1.0
2017-Mar-19 10:39N 58°00' W 154°06'913.5 080 / 13 -4.8 1.6
2017-Mar-19 10:00N 57°54' W 153°54'3 9.6 050 / 171004.9 -5.3-11.4 3.6
2017-Mar-19 09:40N 57°54' W 153°48'710.2 040 / 17 -5.3 3.5
2017-Mar-19 09:00N 58°00' W 153°42'0 0.0 010 / 231004.7 -5.4-10.3 3.5
2017-Mar-19 08:40N 58°00' W 153°42'913.1 020 / 21 -5.5 3.5
2017-Mar-19 08:00N 58°06' W 153°54'310.0 020 / 161004.3 -4.8-9.5 3.3
2017-Mar-19 07:41N 58°06' W 154°00'3 4.6 030 / 13 -4.8 0.8
2017-Mar-19 07:00N 58°06' W 154°06'310.6 040 / 61003.9 -4.6-9.9 0.8
2017-Mar-19 06:42N 58°06' W 154°00'3 4.5 060 / 10 -4.5 1.2
2017-Mar-19 06:00N 58°06' W 154°06'0 0.0 080 / 61003.7 -3.8-9.1 1.1
2017-Mar-19 05:43N 58°06' W 154°06'0 0.0 080 / 8 -3.5 1.3
2017-Mar-19 05:00N 58°06' W 154°06'311.2 060 / 71003.5 -3.6-9.0 1.3
2017-Mar-19 04:43N 58°06' W 154°00'7 9.5 070 / 10 -3.6 1.1
2017-Mar-19 04:00N 58°12' W 154°06'311.9 050 / 91003.3 -4.0-9.8 1.8
2017-Mar-19 03:44N 58°12' W 154°00'6 8.6 040 / 10 -4.0 3.3
2017-Mar-19 03:00N 58°12' W 153°48'727.1 020 / 71003.2 -3.0-8.8 3.7
2017-Mar-19 02:45N 58°06' W 153°42'6 8.0 200 / 3 -1.9 3.8
2017-Mar-19 02:00N 58°12' W 153°42'729.1 140 / 51003.4 -2.6-8.7 3.7
2017-Mar-19 01:46N 58°06' W 153°36'0 0.0 200 / 5 -3.0 3.6
2017-Mar-19 01:00N 58°06' W 153°36'627.7 240 / 71003.5 -2.5-9.7 3.7
2017-Mar-19 00:47N 58°00' W 153°36'6 7.7 230 / 7 -2.5 3.7
2017-Mar-19 00:00N 58°06' W 153°36'0 0.0 230 / 61003.8 -2.9-8.0 3.7
2017-Mar-18 23:00N 58°06' W 153°36'0 0.0 230 / 91004.0 -3.3-7.6 3.7
2017-Mar-18 22:48N 58°06' W 153°36'6 7.9 230 / 6 -3.5 3.6
2017-Mar-18 22:00N 58°06' W 153°24'317.3 280 / 51004.2 -2.8-8.2 3.5
2017-Mar-18 21:49N 58°06' W 153°18'7 8.3 290 / 4 -2.4 3.6
2017-Mar-18 21:00N 58°12' W 153°24'637.9 250 / 91002.510.8 -1.1-7.9-4.0
2017-Mar-18 20:50N 58°12' W 153°36'1518.3 260 / 6 -3.3 4.0
2017-Mar-18 20:00N 58°24' W 153°54'640.0 320 / 141004.5 -4.9-13.2 2.0
2017-Mar-18 19:51N 58°18' W 153°54'910.2 320 / 20 -5.6 2.1
2017-Mar-18 19:00N 58°24' W 153°42'321.0 290 / 171004.3 -5.2-13.5 2.7
2017-Mar-18 18:51N 58°24' W 153°36'1113.2 310 / 16 -5.1 3.3
2017-Mar-18 18:00N 58°18' W 153°18'323.6 280 / 121004.4 -4.1-13.2 4.1
2017-Mar-18 17:52N 58°18' W 153°12'0 0.0 300 / 12 -4.1 4.0
2017-Mar-18 17:00N 58°18' W 153°12'651.4 310 / 121004.7 -4.1-10.3 3.7
2017-Mar-18 16:53N 58°12' W 153°12'6 6.8 290 / 8 -4.2 3.6
2017-Mar-18 16:00N 58°18' W 153°12'767.8 300 / 101004.8 -4.1-9.7 3.6
2017-Mar-18 15:54N 58°12' W 153°06'7 7.5 310 / 7 -3.7 3.6
2017-Mar-18 15:00N 58°18' W 153°12'767.8 320 / 121005.0 -4.2-9.4 3.6
2017-Mar-18 14:54N 58°12' W 153°06'1213.3 320 / 15 -4.2 3.7
2017-Mar-18 14:00N 58°24' W 153°06'0 0.0 300 / 111005.5 -4.6-11.6 4.0
2017-Mar-18 13:55N 58°24' W 153°06'1112.2 300 / 13 -4.7 3.7
2017-Mar-18 13:00N 58°30' W 153°24'347.0 300 / 191005.2 -5.4-14.7 3.0
2017-Mar-18 12:56N 58°30' W 153°18'1313.4 300 / 18 -5.3 2.5
2017-Mar-18 12:00N 58°30' W 152°54'362.7 290 / 191004.010.8 -3.6-12.7-4.0
2017-Mar-18 11:57N 58°30' W 153°00'9 9.1 280 / 16 -3.5 3.9
2017-Mar-18 11:00N 58°36' W 152°48'7203.0 330 / 151006.2 -3.7-8.2 4.3
2017-Mar-18 10:58N 58°30' W 152°42'1414.0 340 / 16 -3.9 4.3
2017-Mar-18 10:00N 58°42' W 152°30'0 0.0 320 / 351004.9 -5.8-9.2 4.5
2017-Mar-18 09:59N 58°42' W 152°30'9 9.5 320 / 36 -6.2 4.5
2017-Mar-18 09:00N 58°42' W 152°12'0 0.0 330 / 291005.4 -5.0-8.9 4.4
2017-Mar-18 08:59N 58°42' W 152°12'3 3.2 320 / 26 -4.9 4.5
2017-Mar-18 08:00N 58°42' W 152°06'719.3 320 / 301005.5 -5.2-9.0 4.8
2017-Mar-18 07:39N 58°36' W 152°00'3 4.8 320 / 29 -5.2 5.0
2017-Mar-18 07:00N 58°36' W 151°54'3 9.4 310 / 261005.8 -4.2-7.6 5.0
2017-Mar-18 06:40N 58°36' W 151°48'6 9.0 310 / 26 -4.5 5.1
2017-Mar-18 06:00N 58°30' W 151°48'618.0 300 / 331005.8 -4.6-8.2 4.8
2017-Mar-18 05:40N 58°24' W 151°48'710.2 310 / 30 -3.9 4.8
2017-Mar-18 05:00N 58°18' W 151°54'2512.4 310 / 301006.8 -5.1-9.8 3.3
2017-Mar-18 03:00N 57°54' W 152°06'621.2 340 / 171007.7 -3.2-10.6 3.7
2017-Mar-18 02:43N 57°48' W 152°06'6 8.9 320 / 19 -2.5 3.5
2017-Mar-18 02:00N 57°48' W 152°18'622.5 330 / 141008.2 -2.0-11.4 3.1
2017-Mar-18 01:44N 57°42' W 152°18'7 9.3 320 / 17 -0.6 3.1
2017-Mar-18 01:00N 57°48' W 152°24'622.5 220 / 91008.5 -1.5-12.1 2.3
2017-Mar-18 00:44N 57°42' W 152°24'6 8.2 240 / 10 -1.6 2.3
2017-Mar-18 00:00N 57°48' W 152°24'0 0.0 240 / 81008.8 -1.4-12.2 2.3
2017-Mar-17 23:00N 57°48' W 152°24'625.7 230 / 41009.3 -1.4-11.1 2.3
2017-Mar-17 22:46N 57°42' W 152°24'6 7.8 200 / 4 -1.7 2.3
2017-Mar-17 22:00N 57°48' W 152°24'627.7 190 / 61009.8 -1.6-11.7 2.3
2017-Mar-17 21:47N 57°42' W 152°24'6 7.7 220 / 5 -1.6 2.2
2017-Mar-17 21:00N 57°48' W 152°24'630.0 170 / 31010.4 -1.5-11.4 2.2
2017-Mar-17 20:48N 57°42' W 152°24'6 7.5 210 / 9 -2.4 2.1
2017-Mar-17 20:00N 57°48' W 152°24'630.0 210 / 71010.7 -2.6-11.0 2.3
2017-Mar-17 19:48N 57°42' W 152°24'6 7.5 230 / 5 -2.7 2.3
2017-Mar-17 19:00N 57°48' W 152°24'632.7 240 / 71011.1 -3.2-11.0 2.1
2017-Mar-17 18:49N 57°42' W 152°24'6 7.3 200 / 7 -3.4 2.1
2017-Mar-17 18:00N 57°48' W 152°24'636.0 260 / 101011.1 -4.5-11.2 2.1
2017-Mar-17 17:50N 57°42' W 152°24'6 7.2 310 / 6 -4.6 2.1
2017-Mar-17 17:00N 57°48' W 152°24'640.0 210 / 41010.9 -4.4-11.0 2.1
2017-Mar-17 16:51N 57°42' W 152°24'6 7.1 250 / 8 -4.8 2.1
2017-Mar-17 16:00N 57°48' W 152°24'640.0 030 / 21011.0 -5.0-11.7 2.3
2017-Mar-17 15:51N 57°42' W 152°24'6 7.1 260 / 5 -4.9 2.3
2017-Mar-17 15:00N 57°48' W 152°24'645.0 220 / 41011.3 -4.7-11.9 2.3
2017-Mar-17 14:52N 57°42' W 152°24'6 6.9 250 / 5 -4.7 2.3
2017-Mar-17 14:00N 57°48' W 152°24'651.4 240 / 51011.7 -4.8-11.5 2.3
2017-Mar-17 13:53N 57°42' W 152°24'6 6.8 220 / 5 -4.6 2.2
2017-Mar-17 13:00N 57°48' W 152°24'660.0 230 / 71011.5 -4.7-12.1 2.1
2017-Mar-17 12:54N 57°42' W 152°24'6 6.7 230 / 7 -4.9 2.1
2017-Mar-17 12:00N 57°48' W 152°24'672.0 220 / 121011.5 -4.6-12.2 2.0
2017-Mar-17 11:55N 57°42' W 152°24'6 6.5 250 / 11 -4.6 2.1
2017-Mar-17 11:00N 57°48' W 152°24'672.0 190 / 31012.0 -4.6-12.2 2.2
2017-Mar-17 10:55N 57°42' W 152°24'6 6.5 190 / 12 -4.4 2.1
2017-Mar-17 10:00N 57°48' W 152°24'690.0 100 / 61011.8 -4.7-12.8 2.3
2017-Mar-17 09:56N 57°42' W 152°24'6 6.4 220 / 11 -4.6 2.3
2017-Mar-17 09:00N 57°48' W 152°24'6120.0 170 / 21012.1 -4.6-12.6 2.3
2017-Mar-17 08:57N 57°42' W 152°24'6 6.3 210 / 5 -4.6 2.3
2017-Mar-17 08:00N 57°48' W 152°24'6180.0 170 / 41012.0 -4.5-14.7 2.3
2017-Mar-17 07:58N 57°42' W 152°24'6 6.2 270 / 9 -4.5 2.3
2017-Mar-17 07:00N 57°48' W 152°24'6360.0 040 / 41012.1 -4.9-15.1 2.2
2017-Mar-17 06:59N 57°42' W 152°24'6 6.1 -4.8 2.2
2017-Mar-17 06:00N 57°48' W 152°24'6360.0 180 / 31011.6 -5.0-14.2 2.1
2017-Mar-17 05:59N 57°42' W 152°24'6 6.1 210 / 5 -5.0 2.1
2017-Mar-17 05:00N 57°48' W 152°24'617.1 160 / 41011.2 -5.0-13.9 2.3
2017-Mar-17 04:39N 57°42' W 152°24'6 9.2 140 / 7 -4.7 2.3
2017-Mar-17 04:00N 57°48' W 152°24'617.1 010 / 41010.6 -4.7-13.8 2.3
2017-Mar-17 03:39N 57°42' W 152°24'6 9.2 150 / 3 -4.4 2.3
2017-Mar-17 03:00N 57°48' W 152°24'618.0 020 / 41009.5 -3.6-13.8 2.2
2017-Mar-17 02:40N 57°42' W 152°24'6 9.0 300 / 6 -3.7 2.3
2017-Mar-17 02:00N 57°48' W 152°24'618.9 180 / 101009.2 -3.0-13.8 2.3
2017-Mar-17 01:41N 57°42' W 152°24'6 8.8 300 / 5 -3.2 2.3
2017-Mar-17 01:00N 57°48' W 152°24'620.0 180 / 51009.3 -2.9-13.5 2.4
2017-Mar-17 00:42N 57°42' W 152°24'6 8.6 230 / 16 -3.2 2.3
2017-Mar-17 00:00N 57°48' W 152°24'0 0.0 110 / 21009.1 -2.2-14.1 2.2
2017-Mar-16 23:00N 57°48' W 152°24'621.2 210 / 61008.9 -2.7-12.9 2.2
2017-Mar-16 22:43N 57°42' W 152°24'6 8.4 210 / 12 -2.9 2.1
2017-Mar-16 22:00N 57°48' W 152°24'622.5 200 / 81008.8 -3.4-13.7 2.2
2017-Mar-16 21:44N 57°42' W 152°24'6 8.2 210 / 9 -3.6 2.3
2017-Mar-16 21:00N 57°48' W 152°24'624.0 200 / 71008.4 -3.3-12.8 2.3
2017-Mar-16 20:45N 57°42' W 152°24'6 8.0 160 / 4 -2.9 2.3
2017-Mar-16 20:00N 57°48' W 152°24'625.7 140 / 31007.8 -3.1-13.0 2.2
2017-Mar-16 19:46N 57°42' W 152°24'6 7.8 210 / 13 -3.9 2.2
2017-Mar-16 19:00N 57°48' W 152°24'625.7 190 / 91007.3 -4.4-13.2 2.2
2017-Mar-16 18:46N 57°42' W 152°24'6 7.8 240 / 14 -5.0 2.2
2017-Mar-16 18:00N 57°48' W 152°24'627.7 210 / 151006.2 -5.0-12.6 2.1
2017-Mar-16 17:47N 57°42' W 152°24'6 7.7 200 / 15 -5.0 2.1
2017-Mar-16 17:00N 57°48' W 152°24'630.0 200 / 101005.4 -5.2-12.7 2.0
2017-Mar-16 16:48N 57°42' W 152°24'6 7.5 240 / 13 -5.3 2.0
2017-Mar-16 16:00N 57°48' W 152°24'632.7 220 / 121004.1 -5.2-12.6 2.1
2017-Mar-16 15:49N 57°42' W 152°24'6 7.3 220 / 9 -5.4 2.1
2017-Mar-16 15:00N 57°48' W 152°24'636.0 170 / 61004.0 -5.5-12.9 2.2
2017-Mar-16 14:50N 57°42' W 152°24'6 7.2 200 / 8 -5.6 2.2
2017-Mar-16 14:00N 57°48' W 152°24'636.0 220 / 121003.0 -5.7-13.3 2.5
2017-Mar-16 13:50N 57°42' W 152°24'6 7.2 210 / 12 -5.6 2.5
2017-Mar-16 13:00N 57°48' W 152°24'640.0 180 / 91002.3 -5.7-14.1 2.5
2017-Mar-16 12:51N 57°42' W 152°24'6 7.1 200 / 6 -5.6 2.5
2017-Mar-16 12:00N 57°48' W 152°24'645.0 140 / 101001.6 -5.4-13.4 2.3
2017-Mar-16 11:52N 57°42' W 152°24'6 6.9 130 / 7 -5.6 2.3
2017-Mar-16 11:00N 57°48' W 152°24'651.4 180 / 81001.0 -5.4-13.3 2.2
2017-Mar-16 10:53N 57°42' W 152°24'6 6.8 180 / 13 -5.4 2.2
2017-Mar-16 10:00N 57°48' W 152°24'651.4 170 / 81000.7 -6.1-14.8 2.4
2017-Mar-16 09:53N 57°42' W 152°24'6 6.8 120 / 6 -5.9 2.4
2017-Mar-16 09:00N 57°48' W 152°24'660.0 230 / 91000.8 -5.9-14.1 2.4
2017-Mar-16 08:54N 57°42' W 152°24'6 6.7 070 / 3 -5.9 2.4
2017-Mar-16 08:00N 57°48' W 152°24'672.0 200 / 101000.3 -6.1-14.4 2.5
2017-Mar-16 07:55N 57°42' W 152°24'6 6.5 200 / 8 -6.0 2.5
2017-Mar-16 07:00N 57°48' W 152°24'690.0 180 / 9999.6 -6.1-14.8 2.4
2017-Mar-16 06:56N 57°42' W 152°24'6 6.4 210 / 15 -6.1 2.4
2017-Mar-16 06:00N 57°48' W 152°24'690.0 250 / 7998.8 -6.1-15.2 2.5
2017-Mar-16 05:56N 57°42' W 152°24'6 6.4 070 / 3 -6.1 2.5
2017-Mar-16 05:00N 57°48' W 152°24'6120.0 200 / 12998.2 -6.4-15.1 2.4
2017-Mar-16 04:57N 57°42' W 152°24'6 6.3 240 / 7 -6.6 2.3
2017-Mar-16 04:00N 57°48' W 152°24'6180.0 180 / 6998.0 -6.9-15.2 2.7
2017-Mar-16 03:58N 57°42' W 152°24'6 6.2 170 / 3 -6.8 2.7
2017-Mar-16 03:00N 57°48' W 152°24'6360.0 170 / 4997.6 -6.9-15.7 2.7
2017-Mar-16 02:59N 57°42' W 152°24'6 6.1 040 / 3 -6.9 2.7
2017-Mar-16 02:00N 57°48' W 152°24'6360.0 230 / 4997.3 -6.5-14.8 2.7
2017-Mar-16 01:59N 57°42' W 152°24'6 6.1 220 / 5 -6.5 2.7
2017-Mar-16 01:00N 57°48' W 152°24'617.1 240 / 11996.9 -6.0-15.5 2.7
2017-Mar-16 00:39N 57°42' W 152°24'6 9.2 220 / 13 -5.9 2.6
2017-Mar-16 00:00N 57°48' W 152°24'0 0.0 220 / 8997.0 -6.7-13.3 2.5
2017-Mar-15 23:00N 57°48' W 152°24'618.0 280 / 9997.1 -6.2-13.3 2.3
2017-Mar-15 22:40N 57°42' W 152°24'6 9.0 300 / 19 -7.2 2.1
2017-Mar-15 22:00N 57°48' W 152°24'618.9 290 / 20997.3 -7.0-12.4 2.6
2017-Mar-15 21:41N 57°42' W 152°24'0 0.0 320 / 19 -7.1 3.3
2017-Mar-15 21:00N 57°42' W 152°24'310.7 320 / 18997.2 -6.8-12.6 3.3
2017-Mar-15 20:42N 57°42' W 152°18'6 8.6 310 / 17 -6.3 3.3
2017-Mar-15 20:00N 57°48' W 152°18'311.3 350 / 24997.0 -6.0-13.5 3.4
2017-Mar-15 19:43N 57°48' W 152°12'7 9.5 340 / 24 -6.0 3.6
2017-Mar-15 19:00N 57°54' W 152°18'724.0 320 / 26997.3 -6.3-12.5 3.5
2017-Mar-15 18:43N 57°48' W 152°12'7 9.5 320 / 22 -6.4 3.5
2017-Mar-15 18:00N 57°54' W 152°18'312.0 320 / 20997.2 -6.4-12.1 3.7
2017-Mar-15 17:44N 57°54' W 152°12'1115.4 340 / 26 -6.0 3.7
2017-Mar-15 17:00N 58°00' W 152°30'624.0 290 / 19998.0 -7.0-13.0 3.5
2017-Mar-15 16:45N 57°54' W 152°30'1012.8 310 / 23 -7.1 3.5
2017-Mar-15 16:00N 57°54' W 152°48'729.1 290 / 15998.4 -7.4-15.0 3.1
2017-Mar-15 15:46N 57°48' W 152°42'6 7.8 290 / 14 -7.5 3.1
2017-Mar-15 15:00N 57°54' W 152°42'0 0.0 300 / 16998.6 -7.2-15.0 3.2
2017-Mar-15 14:47N 57°54' W 152°42'7 8.7 300 / 18 -7.3 3.3
2017-Mar-15 14:00N 58°00' W 152°36'314.7 320 / 23997.9 -5.9-12.2 3.5
2017-Mar-15 13:47N 58°00' W 152°30'0 0.0 310 / 21 -5.8 3.4
2017-Mar-15 13:00N 58°00' W 152°30'315.9 320 / 19998.0 -5.5-12.9 3.7
2017-Mar-15 12:48N 58°00' W 152°24'1011.9 310 / 21 -5.5 3.7
2017-Mar-15 12:00N 58°00' W 152°42'737.0 300 / 15998.8 -5.7-13.1 3.3
2017-Mar-15 11:49N 57°54' W 152°36'0 0.0 300 / 11 -5.8 3.2
2017-Mar-15 11:00N 57°54' W 152°36'319.1 320 / 21998.3 -5.2-13.5 3.3
2017-Mar-15 10:50N 57°54' W 152°30'6 7.2 310 / 20 -4.7 3.3
2017-Mar-15 10:00N 58°00' W 152°30'636.0 320 / 22998.6 -4.6-12.3 3.3
2017-Mar-15 09:50N 57°54' W 152°30'6 7.2 300 / 16 -4.8 3.6
2017-Mar-15 09:00N 58°00' W 152°30'0 0.0 320 / 18998.8 -4.1-14.1 3.5
2017-Mar-15 08:51N 58°00' W 152°30'3 3.7 320 / 18 -4.5 3.7
2017-Mar-15 08:00N 58°00' W 152°24'323.8 310 / 22998.6 -4.1-13.7 3.8
2017-Mar-15 07:52N 58°00' W 152°18'0 0.0 320 / 19 -4.2 3.8
2017-Mar-15 07:00N 58°00' W 152°18'651.4 330 / 18998.4 -4.3-14.5 3.8
2017-Mar-15 06:53N 57°54' W 152°18'7 7.7 330 / 18 -4.3 3.8
2017-Mar-15 06:00N 58°00' W 152°12'651.4 320 / 22998.2 -3.7-13.0 3.8
2017-Mar-15 05:53N 57°54' W 152°12'9 9.9 320 / 22 -4.0 3.8
2017-Mar-15 05:00N 58°00' W 152°24'331.8 320 / 24998.0 -4.0-13.6 3.8
2017-Mar-15 04:54N 58°00' W 152°18'9 9.7 310 / 25 -3.8 3.8
2017-Mar-15 04:00N 58°06' W 152°30'781.5 340 / 19998.0 -4.0-16.3 3.8
2017-Mar-15 03:55N 58°00' W 152°24'6 6.5 340 / 17 -3.9 3.9
2017-Mar-15 03:00N 58°06' W 152°24'690.0 340 / 20997.6 -3.7-14.7 3.8
2017-Mar-15 02:56N 58°00' W 152°24'0 0.0 330 / 23 -3.7 3.8
2017-Mar-15 02:00N 58°00' W 152°24'363.6 330 / 26997.4 -3.3-12.4 4.0
2017-Mar-15 01:57N 58°00' W 152°18'0 0.0 320 / 24 -3.9 3.9
2017-Mar-15 01:00N 58°00' W 152°18'7135.8 340 / 31996.7 -3.3-11.2 4.0
2017-Mar-15 00:57N 57°54' W 152°12'0 0.0 330 / 29 -3.2 4.0
2017-Mar-15 00:00N 57°54' W 152°12'7 6.8 330 / 29996.6 -3.6-10.5 3.8
2017-Mar-14 23:00N 57°48' W 152°06'6360.0 340 / 29997.1 -3.7-9.2 3.7
2017-Mar-14 22:59N 57°42' W 152°06'6 6.5 330 / 27 -3.6 3.7
2017-Mar-14 22:00N 57°42' W 152°18'7 6.8 340 / 22998.0 -3.2-10.6 3.5
2017-Mar-14 21:00N 57°48' W 152°24'690.0 090 / 7998.2 -3.4-10.3 2.7
2017-Mar-14 20:56N 57°42' W 152°24'6 6.4 080 / 9 -3.5 2.7
2017-Mar-14 20:00N 57°48' W 152°24'6120.0 080 / 8998.3 -3.3-10.7 2.6
2017-Mar-14 19:57N 57°42' W 152°24'6 6.3 080 / 8 -3.3 2.6
2017-Mar-14 19:00N 57°48' W 152°24'6180.0 210 / 11999.0 -3.3-10.4 2.6
2017-Mar-14 18:58N 57°42' W 152°24'6 6.2 170 / 7 -3.0 2.6
2017-Mar-14 18:00N 57°48' W 152°24'6360.0 190 / 6999.0 -2.7-10.4 2.5
2017-Mar-14 17:59N 57°42' W 152°24'6 6.1 250 / 6 -2.9 2.5
2017-Mar-14 17:00N 57°48' W 152°24'0 0.0 190 / 12999.0 -2.8-10.8 2.5
2017-Mar-14 16:00N 57°48' W 152°24'   180 / 10998.9 -2.7-11.3 2.3
Track history (hours):
 
Tides and Currents Weather Stations Pressure Air Temp Water Temp Dewpoint Dewpoint Depression Visibility Wind Speed Wind Dir Waves Ship Positions

Oceanographic research ship Oscar Dyson (USA)

Ship's website: http://www.moc.noaa.gov/od/

Detailed information on ship capabilities available from University of Delaware's Ocean Information Center and ARCUS's ALIAS (Arctic Logistics Information and Support) project.

Last reported at 2017-Mar-23 19:00 UTC. Time now 2017-Mar-23 20:21 UTC.
Position N 55°30' W 155°54'.

Type: Ship. MMSI: 369959000.

Wind from 350 at 21 knots

Barometer 1011.1 mb
Air temperature 0.6 ° C
Dewpoint -6.5 ° C
Water temperature 4.5 ° C

Date/timePositionNaut miles runAvg speedWind from/ knotsBaromVisibWave heightAir tempDewpointWater temp
2017-Mar-23 19:00N 55°30' W 155°54'320.4 350 / 211011.1 0.6-6.5 4.5
2017-Mar-23 18:50N 55°30' W 155°48'6 7.2 350 / 22 0.8 4.5
2017-Mar-23 18:00N 55°36' W 155°48'745.2 340 / 241009.110.8 1.1-6.6-3.1
2017-Mar-23 17:51N 55°36' W 156°00'1213.9 330 / 23 0.1 3.1
2017-Mar-23 17:00N 55°42' W 156°18'0 0.0 330 / 211010.8 -0.8-8.3 3.2
2017-Mar-23 16:52N 55°42' W 156°18'910.4 340 / 21 -0.6 3.3
2017-Mar-23 16:00N 55°48' W 156°30'645.0 340 / 211010.9 -0.9-7.2 3.2
2017-Mar-23 15:52N 55°42' W 156°30'6 6.9 330 / 23 -0.7 3.3
2017-Mar-23 15:00N 55°48' W 156°30'651.4 330 / 211010.7 -1.0-8.5 3.4
2017-Mar-23 14:53N 55°42' W 156°30'3 3.8 340 / 21 -1.1 3.4
2017-Mar-23 14:00N 55°42' W 156°24'333.8 340 / 201010.1 -1.4-8.1 3.4
2017-Mar-23 13:54N 55°42' W 156°18'1213.1 330 / 19 -1.4 3.3
2017-Mar-23 13:00N 55°48' W 156°36'0 0.0 330 / 251010.1 -1.3-8.1 3.4
2017-Mar-23 12:55N 55°48' W 156°36'1516.1 340 / 24 -1.1 3.4
2017-Mar-23 12:00N 55°54' W 157°00'672.0 330 / 261010.3 -1.7-8.2 3.1
2017-Mar-23 11:55N 55°48' W 157°00'1212.8 340 / 28 -1.7 3.1
2017-Mar-23 11:00N 55°54' W 156°42'350.5 340 / 241009.2 -1.8-7.8 3.2
2017-Mar-23 10:56N 55°54' W 156°36'7 7.2 350 / 23 -1.6 3.3
2017-Mar-23 10:00N 55°54' W 156°24'7137.6 350 / 181009.2 -1.8-7.9 3.2
2017-Mar-23 09:57N 55°48' W 156°18'1010.7 350 / 20 -1.9 3.3
2017-Mar-23 09:00N 55°48' W 156°00'0 0.0 340 / 181008.5 -0.8-8.1 4.1
2017-Mar-23 08:58N 55°48' W 156°00'7 7.1 350 / 19 -0.7 4.1
2017-Mar-23 08:00N 55°54' W 156°06'0 0.0 340 / 151008.2 -0.9-8.5 3.3
2017-Mar-23 07:58N 55°54' W 156°06'1515.2 340 / 17 -0.9 3.3
2017-Mar-23 07:00N 56°00' W 156°30'0 0.0 320 / 201008.8 -2.3-8.1 3.3
2017-Mar-23 06:59N 56°00' W 156°30'1212.7 320 / 21 -2.3 3.3
2017-Mar-23 06:00N 56°12' W 156°36'1211.7 330 / 231008.1 -2.6-8.7 3.5
2017-Mar-23 05:00N 56°06' W 156°18'925.7 340 / 191007.8 -1.2-9.3 3.3
2017-Mar-23 04:39N 56°00' W 156°06'710.6 350 / 12 -0.3 3.1
2017-Mar-23 04:00N 56°06' W 156°00'310.0 030 / 91007.5 -0.9-5.9 3.3
2017-Mar-23 03:40N 56°06' W 155°54'913.5 030 / 10 -0.9 3.3
2017-Mar-23 03:00N 56°12' W 156°06'310.5 320 / 101007.2 -0.2-9.5 3.4
2017-Mar-23 02:41N 56°12' W 156°12'913.1 330 / 17 0.4 3.4
2017-Mar-23 02:00N 56°18' W 156°24'722.9 320 / 161007.4 -0.7-7.6 3.5
2017-Mar-23 01:42N 56°12' W 156°18'7 9.8 310 / 17 -0.8 3.6
2017-Mar-23 01:00N 56°18' W 156°24'722.9 320 / 161007.4 -1.0-8.1 3.5
2017-Mar-23 00:42N 56°12' W 156°18'0 0.0 330 / 13 -0.8 3.6
2017-Mar-23 00:00N 56°12' W 156°18'1211.7 330 / 151007.4 -0.1-8.6 3.2
2017-Mar-22 23:00N 56°18' W 156°36'312.5 330 / 171007.9 -0.7-8.5 3.5
2017-Mar-22 22:44N 56°18' W 156°42'1216.4 340 / 18 -1.7 3.3
2017-Mar-22 22:00N 56°30' W 156°42'935.8 330 / 181007.6 -1.8-9.1 3.3
2017-Mar-22 21:45N 56°24' W 156°30'7 8.9 340 / 16 -1.2 3.4
2017-Mar-22 21:00N 56°24' W 156°18'727.4 340 / 91007.7 -0.9-9.6 3.5
2017-Mar-22 20:45N 56°18' W 156°12'7 8.9 320 / 9 -0.8 3.4
2017-Mar-22 20:00N 56°18' W 156°00'728.5 360 / 121007.4 -0.2-7.6 3.3
2017-Mar-22 19:46N 56°18' W 155°48'7 8.9 360 / 17 -0.3 3.1
2017-Mar-22 19:00N 56°24' W 155°54'0 0.0 360 / 201007.3 -0.1-7.9 3.5
2017-Mar-22 18:47N 56°24' W 155°54'1214.8 010 / 18 -0.1 3.5
2017-Mar-22 18:00N 56°30' W 156°12'316.6 330 / 71007.9 0.8-8.7 3.4
2017-Mar-22 17:48N 56°30' W 156°06'0 0.0 330 / 6 -0.2 3.4
2017-Mar-22 17:00N 56°30' W 156°06'630.0 330 / 71008.0 -0.3-8.7 3.4
2017-Mar-22 16:48N 56°24' W 156°06'0 0.0 320 / 9 -0.3 3.4
2017-Mar-22 16:00N 56°24' W 156°06'318.1 360 / 151007.9 -0.1-9.4 3.4
2017-Mar-22 15:49N 56°24' W 156°00'911.0 350 / 18 -0.1 3.4
2017-Mar-22 15:00N 56°30' W 156°12'319.9 320 / 131006.910.8 -0.0-8.1-3.5
2017-Mar-22 14:50N 56°30' W 156°18'1213.9 320 / 13 -1.1 3.5
2017-Mar-22 14:00N 56°36' W 156°36'322.0 310 / 171009.1 -1.8-9.2 3.1
2017-Mar-22 13:51N 56°36' W 156°42'6 7.1 300 / 18 -1.9 3.3
2017-Mar-22 13:00N 56°42' W 156°42'324.7 310 / 181009.3 -1.9-9.9 3.3
2017-Mar-22 12:52N 56°42' W 156°36'7 7.6 290 / 14 -1.7 3.3
2017-Mar-22 12:00N 56°42' W 156°24'751.4 360 / 121009.510.8 -0.8-11.0 3.5
2017-Mar-22 11:52N 56°36' W 156°18'3 3.8 360 / 13 -0.8 3.4
2017-Mar-22 11:00N 56°36' W 156°12'328.3 350 / 121009.8 -0.7-9.0 3.3
2017-Mar-22 10:53N 56°36' W 156°06'0 0.0 340 / 13 -0.8 3.3
2017-Mar-22 10:00N 56°36' W 156°06'0 0.0 360 / 151010.2 -0.9-9.9 3.3
2017-Mar-22 09:54N 56°36' W 156°06'3 3.7 010 / 16 -1.0 3.3
2017-Mar-22 09:00N 56°36' W 156°12'0 0.0 330 / 121010.4 -1.2-8.6 3.3
2017-Mar-22 08:55N 56°36' W 156°12'1010.8 330 / 14 -1.4 3.3
2017-Mar-22 08:00N 56°36' W 155°54'7102.8 1010.1 -2.1-7.7 3.5
2017-Mar-22 07:56N 56°30' W 155°48'1212.4 360 / 24 -2.2 3.6
2017-Mar-22 07:00N 56°36' W 155°30'0 0.0 360 / 251010.5 -2.3-7.0 3.4
2017-Mar-22 06:56N 56°36' W 155°30'1212.4 360 / 25 -2.2 3.3
2017-Mar-22 06:00N 56°42' W 155°48'7136.9 350 / 261010.7 -2.6-7.5 3.4
2017-Mar-22 05:57N 56°36' W 155°42'1212.2 350 / 27 -2.8 3.4
2017-Mar-22 05:00N 56°42' W 156°00'0 0.0 010 / 241011.3 -3.4-9.4 3.0
2017-Mar-22 04:58N 56°42' W 156°00'0 0.0 020 / 23 -3.0 3.0
2017-Mar-22 04:00N 56°42' W 156°00'7410.8 010 / 241011.4 -3.2-9.5 3.4
2017-Mar-22 03:59N 56°36' W 155°54'7 7.0 010 / 23 -3.1 3.4
2017-Mar-22 03:00N 56°42' W 156°00'0 0.0 010 / 241011.3 -1.7-8.6 3.1
2017-Mar-22 02:59N 56°42' W 156°00'1414.7 010 / 26 -1.6 3.3
2017-Mar-22 02:00N 56°48' W 156°24'7 6.8 350 / 141012.4 -0.8-10.1 3.5
2017-Mar-22 01:00N 56°54' W 156°18'925.4 310 / 41012.6 -1.2-11.2 3.2
2017-Mar-22 00:39N 56°48' W 156°06'710.1 010 / 26 -2.7 3.2
2017-Mar-22 00:00N 56°48' W 155°54'10 9.9 1012.1 -3.6-9.5 3.1
2017-Mar-21 23:00N 56°48' W 155°36'721.6 350 / 271012.5 -3.9-8.8 3.4
2017-Mar-21 22:41N 56°42' W 155°30'6 8.8 350 / 11 -3.8 3.1
2017-Mar-21 22:00N 56°48' W 155°30'620.0 340 / 241012.8 -4.0-8.2 3.1
2017-Mar-21 21:42N 56°42' W 155°30'0 0.0 350 / 26 -4.1 3.1
2017-Mar-21 21:00N 56°42' W 155°30'0 0.0 340 / 141012.9 -3.9-8.2 3.3
2017-Mar-21 20:42N 56°42' W 155°30'3 4.7 330 / 28 -3.7 3.1
2017-Mar-21 20:00N 56°42' W 155°24'723.3 350 / 291012.2 -4.1-7.9 3.3
2017-Mar-21 19:43N 56°42' W 155°12'6 8.4 330 / 27 -3.5 3.5
2017-Mar-21 19:00N 56°48' W 155°12'312.3 340 / 271012.2 -3.2-7.1 3.4
2017-Mar-21 18:44N 56°48' W 155°18'1215.7 330 / 28 -4.0 3.3
2017-Mar-21 18:00N 56°54' W 155°36'0 0.0 340 / 281012.8 -4.5-9.1 3.4
2017-Mar-21 17:45N 56°54' W 155°36'7 8.7 340 / 29 -4.6 3.5
2017-Mar-21 17:00N 56°54' W 155°48'0 0.0 340 / 311012.9 -5.4-11.1 3.1
2017-Mar-21 16:45N 56°54' W 155°48'911.8 350 / 31 -4.9 3.1
2017-Mar-21 16:00N 57°00' W 156°00'0 0.0 340 / 281013.0 -3.7-10.9 3.0
2017-Mar-21 15:46N 57°00' W 156°00'7 8.9 340 / 29 -3.7 3.0
2017-Mar-21 15:00N 57°06' W 155°54'315.0 350 / 371010.010.8 -4.0-11.8-3.1
2017-Mar-21 14:47N 57°06' W 156°00'3 4.2 350 / 37 -5.7 3.0
2017-Mar-21 14:00N 57°06' W 155°54'731.5 340 / 371012.6 -5.9-11.4 3.3
2017-Mar-21 13:47N 57°00' W 155°48'7 8.3 340 / 32 -5.6 3.2
2017-Mar-21 13:00N 57°00' W 155°36'315.1 330 / 301013.0 -5.0-11.1 3.4
2017-Mar-21 12:47N 57°00' W 155°30'3 4.2 330 / 29 -5.3 3.3
2017-Mar-21 12:00N 57°00' W 155°24'0 0.0 330 / 281013.5 -5.1-9.6 3.3
2017-Mar-21 11:48N 57°00' W 155°24'7 8.2 330 / 27 -5.3 3.3
2017-Mar-21 11:00N 57°00' W 155°12'737.3 330 / 261013.1 -4.5-8.5 3.3
2017-Mar-21 10:49N 56°54' W 155°06'7 8.4 330 / 25 -4.3 3.2
2017-Mar-21 10:00N 57°00' W 155°00'319.6 320 / 251013.2 -3.5-8.3 3.6
2017-Mar-21 09:50N 57°00' W 154°54'1417.2 310 / 19 -3.4 3.5
2017-Mar-21 09:00N 57°06' W 155°18'0 0.0 310 / 221014.0 -4.4-8.7 3.3
2017-Mar-21 08:51N 57°06' W 155°18'1113.5 310 / 25 -4.5 3.1
2017-Mar-21 08:00N 57°12' W 155°36'321.7 310 / 311014.1 -5.5-10.0 3.0
2017-Mar-21 07:51N 57°12' W 155°42'1113.5 310 / 31 -5.5 3.1
2017-Mar-21 07:00N 57°18' W 156°00'645.0 310 / 341014.2 -5.8-11.0 3.0
2017-Mar-21 06:52N 57°12' W 156°00'910.2 310 / 35 -6.4 2.9
2017-Mar-21 06:00N 57°18' W 155°48'327.8 300 / 281013.9 -5.4-10.9 3.2
2017-Mar-21 05:53N 57°18' W 155°42'6 7.3 320 / 26 -4.7 3.1
2017-Mar-21 05:00N 57°18' W 155°30'768.2 320 / 291013.8 -4.5-11.8 3.1
2017-Mar-21 04:54N 57°12' W 155°24'7 7.6 320 / 27 -4.2 3.5
2017-Mar-21 04:00N 57°18' W 155°30'768.2 310 / 261014.0 -4.1-10.5 3.3
2017-Mar-21 03:54N 57°12' W 155°24'6 6.7 320 / 27 -4.3 3.4
2017-Mar-21 03:00N 57°18' W 155°24'672.0 320 / 251014.1 -3.7-10.6 3.3
2017-Mar-21 02:55N 57°12' W 155°24'3 3.5 320 / 14 -2.7 3.5
2017-Mar-21 02:00N 57°12' W 155°18'348.8 340 / 181014.2 -2.9-9.1 3.5
2017-Mar-21 01:56N 57°12' W 155°12'1010.4 340 / 13 -2.9 3.5
2017-Mar-21 01:00N 57°12' W 154°54'6120.0 350 / 201014.4 -3.3-7.8 3.3
2017-Mar-21 00:57N 57°06' W 154°54'1213.1 340 / 20 -2.6 3.3
2017-Mar-21 00:00N 57°18' W 155°00'1414.3 320 / 211015.0 -3.2-8.4 3.5
2017-Mar-20 23:00N 57°24' W 155°24'397.0 330 / 251015.2 -3.7-9.2 3.2
2017-Mar-20 22:58N 57°24' W 155°18'1414.7 330 / 25 -3.8 3.1
2017-Mar-20 22:00N 57°30' W 155°42'6360.0 320 / 211015.0 -4.6-12.6 3.3
2017-Mar-20 21:59N 57°24' W 155°42'1515.7 320 / 17 -4.2 3.2
2017-Mar-20 21:00N 57°36' W 155°24'718.6 350 / 271014.6 -6.7-11.5 3.0
2017-Mar-20 20:38N 57°30' W 155°18'913.9 340 / 28 -7.1 3.3
2017-Mar-20 20:00N 57°24' W 155°06'3 9.2 330 / 221014.6 -6.3-9.5 3.4
2017-Mar-20 19:39N 57°24' W 155°00'0 0.0 340 / 19 -6.2 3.4
2017-Mar-20 19:00N 57°24' W 155°00'3 9.7 320 / 161014.9 -5.6-8.8 3.4
2017-Mar-20 18:40N 57°24' W 154°54'0 0.0 320 / 16 -5.4 3.4
2017-Mar-20 18:00N 57°24' W 154°54'618.9 330 / 171014.7 -5.6-9.2 3.3
2017-Mar-20 17:41N 57°18' W 154°54'6 8.8 330 / 19 -5.0 3.3
2017-Mar-20 17:00N 57°24' W 154°54'721.5 340 / 161014.3 -5.8-9.6 3.3
2017-Mar-20 16:41N 57°18' W 154°48'1217.6 330 / 18 -5.4 3.4
2017-Mar-20 16:00N 57°30' W 154°48'310.7 280 / 101014.3 -4.8-8.7 3.5
2017-Mar-20 15:42N 57°30' W 154°54'912.6 300 / 10 -5.7 3.5
2017-Mar-20 15:00N 57°36' W 155°06'311.3 310 / 171014.3 -7.6-11.6 3.5
2017-Mar-20 14:43N 57°36' W 155°12'0 0.0 310 / 16 -8.6 3.3
2017-Mar-20 14:00N 57°36' W 155°12'0 0.0 300 / 311013.8 -8.6-12.7 3.2
2017-Mar-20 13:44N 57°36' W 155°12'3 4.4 320 / 31 -8.2 3.3
2017-Mar-20 13:00N 57°36' W 155°06'0 0.0 320 / 291013.6 -8.3-12.1 3.6
2017-Mar-20 12:45N 57°36' W 155°06'3 4.3 320 / 28 -8.3 3.6
2017-Mar-20 12:00N 57°36' W 155°00'312.9 320 / 301011.010.8 -5.0-10.9 3.6
2017-Mar-20 11:45N 57°36' W 155°06'0 0.0 320 / 26 -7.1 3.4
2017-Mar-20 11:00N 57°36' W 155°06'729.2 310 / 251013.6 -7.6-11.3 3.6
2017-Mar-20 10:46N 57°30' W 155°00'6 7.8 310 / 24 -7.0 3.6
2017-Mar-20 10:00N 57°36' W 155°00'627.7 310 / 221013.5 -6.0-10.5 3.6
2017-Mar-20 09:47N 57°30' W 155°00'1114.5 310 / 26 -6.9 3.6
2017-Mar-20 09:00N 57°36' W 155°18'0 0.0 310 / 211013.5 -8.4-13.6 2.1
2017-Mar-20 08:48N 57°36' W 155°18'911.0 310 / 35 -9.1 2.5
2017-Mar-20 08:00N 57°42' W 155°06'316.0 320 / 151013.2 -6.1-11.9 2.5
2017-Mar-20 07:48N 57°42' W 155°00'911.0 290 / 13 -5.6 2.7
2017-Mar-20 07:00N 57°36' W 154°48'317.5 310 / 61013.1 -5.4-11.5 3.5
2017-Mar-20 06:49N 57°36' W 154°42'6 7.9 290 / 7 -5.2 3.5
2017-Mar-20 06:00N 57°36' W 154°30'319.3 230 / 71012.8 -4.5-9.5 3.6
2017-Mar-20 05:50N 57°36' W 154°24'1113.6 210 / 9 -4.7 3.1
2017-Mar-20 05:00N 57°42' W 154°42'0 0.0 280 / 121012.3 -4.8-11.1 3.1
2017-Mar-20 04:51N 57°42' W 154°42'910.3 280 / 13 -5.0 2.4
2017-Mar-20 04:00N 57°48' W 154°54'0 0.0 290 / 131011.6 -5.4-13.1 2.3
2017-Mar-20 03:52N 57°48' W 154°54'3 3.7 290 / 11 -5.2 2.5
2017-Mar-20 03:00N 57°48' W 154°48'0 0.0 290 / 121011.2 -5.1-13.9 2.2
2017-Mar-20 02:52N 57°48' W 154°48'3 3.7 280 / 14 -5.3 2.2
2017-Mar-20 02:00N 57°48' W 154°54'0 0.0 290 / 141011.0 -4.8-13.0 2.4
2017-Mar-20 01:53N 57°48' W 154°54'7 7.7 270 / 16 -4.5 2.2
2017-Mar-20 01:00N 57°54' W 154°48'331.9 290 / 111010.4 -5.0-12.0 3.0
2017-Mar-20 00:54N 57°54' W 154°42'3 3.5 290 / 12 -4.9 3.0
2017-Mar-20 00:00N 57°54' W 154°48'3 3.2 280 / 141010.3 -6.1-12.1 1.8
2017-Mar-19 23:00N 57°54' W 154°42'0 0.0 280 / 151010.0 -6.0-11.1 2.9
2017-Mar-19 22:55N 57°54' W 154°42'3 3.5 290 / 14 -6.1 3.0
2017-Mar-19 22:00N 57°54' W 154°36'690.0 290 / 111009.8 -5.1-10.3 1.9
2017-Mar-19 21:56N 57°48' W 154°36'6 6.4 290 / 16 -5.0 3.1
2017-Mar-19 21:00N 57°54' W 154°36'6120.0 310 / 91009.310.8 -4.7-10.3 1.5
2017-Mar-19 20:57N 57°48' W 154°36'1010.1 300 / 9 -4.7 1.4
2017-Mar-19 20:00N 57°48' W 154°18'7204.0 140 / 51008.8 -4.6-8.7 3.6
2017-Mar-19 19:58N 57°42' W 154°12'7 7.0 130 / 4 -4.6 3.7
2017-Mar-19 19:00N 57°48' W 154°06'0 0.0 040 / 31008.3 -4.2-10.8 2.6
2017-Mar-19 18:59N 57°48' W 154°06'0 0.0 050 / 4 -4.4 3.0
2017-Mar-19 18:00N 57°48' W 154°06'0 0.0 040 / 81007.6 -4.6-9.8 2.8
2017-Mar-19 17:59N 57°48' W 154°06'3 3.3 050 / 6 -4.5 2.7
2017-Mar-19 17:00N 57°48' W 154°12'348.0 050 / 81006.9 -4.8-10.1 2.5
2017-Mar-19 16:56N 57°48' W 154°06'0 0.0 070 / 8 -4.9 2.5
2017-Mar-19 16:00N 57°48' W 154°06'0 0.0 060 / 71006.6 -4.7-10.3 3.1
2017-Mar-19 15:57N 57°48' W 154°06'9 9.2 060 / 8 -4.8 2.7
2017-Mar-19 15:00N 57°54' W 154°18'0 0.0 040 / 101006.3 -4.9-11.5 1.5
2017-Mar-19 14:57N 57°54' W 154°18'3 3.4 050 / 13 -4.8 1.5
2017-Mar-19 14:00N 57°54' W 154°24'395.7 070 / 121005.7 -5.1-11.1 1.2
2017-Mar-19 13:58N 57°54' W 154°18'6 6.6 080 / 11 -5.0 1.2
2017-Mar-19 13:00N 57°54' W 154°30'3191.3 100 / 131005.6 -4.5-10.9 1.1
2017-Mar-19 12:59N 57°54' W 154°24'7 6.9 090 / 14 -4.5 1.1
2017-Mar-19 12:00N 58°00' W 154°30'9 8.7 090 / 101005.1 -4.3-10.1 0.7
2017-Mar-19 11:00N 58°06' W 154°18'925.0 050 / 101005.0 -5.0-9.8 1.0
2017-Mar-19 10:39N 58°00' W 154°06'913.5 080 / 13 -4.8 1.6
2017-Mar-19 10:00N 57°54' W 153°54'3 9.6 050 / 171004.9 -5.3-11.4 3.6
2017-Mar-19 09:40N 57°54' W 153°48'710.2 040 / 17 -5.3 3.5
2017-Mar-19 09:00N 58°00' W 153°42'0 0.0 010 / 231004.7 -5.4-10.3 3.5
2017-Mar-19 08:40N 58°00' W 153°42'913.1 020 / 21 -5.5 3.5
2017-Mar-19 08:00N 58°06' W 153°54'310.0 020 / 161004.3 -4.8-9.5 3.3
2017-Mar-19 07:41N 58°06' W 154°00'3 4.6 030 / 13 -4.8 0.8
2017-Mar-19 07:00N 58°06' W 154°06'310.6 040 / 61003.9 -4.6-9.9 0.8
2017-Mar-19 06:42N 58°06' W 154°00'3 4.5 060 / 10 -4.5 1.2
2017-Mar-19 06:00N 58°06' W 154°06'0 0.0 080 / 61003.7 -3.8-9.1 1.1
2017-Mar-19 05:43N 58°06' W 154°06'0 0.0 080 / 8 -3.5 1.3
2017-Mar-19 05:00N 58°06' W 154°06'311.2 060 / 71003.5 -3.6-9.0 1.3
2017-Mar-19 04:43N 58°06' W 154°00'7 9.5 070 / 10 -3.6 1.1
2017-Mar-19 04:00N 58°12' W 154°06'311.9 050 / 91003.3 -4.0-9.8 1.8
2017-Mar-19 03:44N 58°12' W 154°00'6 8.6 040 / 10 -4.0 3.3
2017-Mar-19 03:00N 58°12' W 153°48'727.1 020 / 71003.2 -3.0-8.8 3.7
2017-Mar-19 02:45N 58°06' W 153°42'6 8.0 200 / 3 -1.9 3.8
2017-Mar-19 02:00N 58°12' W 153°42'729.1 140 / 51003.4 -2.6-8.7 3.7
2017-Mar-19 01:46N 58°06' W 153°36'0 0.0 200 / 5 -3.0 3.6
2017-Mar-19 01:00N 58°06' W 153°36'627.7 240 / 71003.5 -2.5-9.7 3.7
2017-Mar-19 00:47N 58°00' W 153°36'6 7.7 230 / 7 -2.5 3.7
2017-Mar-19 00:00N 58°06' W 153°36'0 0.0 230 / 61003.8 -2.9-8.0 3.7
2017-Mar-18 23:00N 58°06' W 153°36'0 0.0 230 / 91004.0 -3.3-7.6 3.7
2017-Mar-18 22:48N 58°06' W 153°36'6 7.9 230 / 6 -3.5 3.6
2017-Mar-18 22:00N 58°06' W 153°24'317.3 280 / 51004.2 -2.8-8.2 3.5
2017-Mar-18 21:49N 58°06' W 153°18'7 8.3 290 / 4 -2.4 3.6
2017-Mar-18 21:00N 58°12' W 153°24'637.9 250 / 91002.510.8 -1.1-7.9-4.0
2017-Mar-18 20:50N 58°12' W 153°36'1518.3 260 / 6 -3.3 4.0
2017-Mar-18 20:00N 58°24' W 153°54'640.0 320 / 141004.5 -4.9-13.2 2.0
2017-Mar-18 19:51N 58°18' W 153°54'910.2 320 / 20 -5.6 2.1
2017-Mar-18 19:00N 58°24' W 153°42'321.0 290 / 171004.3 -5.2-13.5 2.7
2017-Mar-18 18:51N 58°24' W 153°36'1113.2 310 / 16 -5.1 3.3
2017-Mar-18 18:00N 58°18' W 153°18'323.6 280 / 121004.4 -4.1-13.2 4.1
2017-Mar-18 17:52N 58°18' W 153°12'0 0.0 300 / 12 -4.1 4.0
2017-Mar-18 17:00N 58°18' W 153°12'651.4 310 / 121004.7 -4.1-10.3 3.7
2017-Mar-18 16:53N 58°12' W 153°12'6 6.8 290 / 8 -4.2 3.6
2017-Mar-18 16:00N 58°18' W 153°12'767.8 300 / 101004.8 -4.1-9.7 3.6
2017-Mar-18 15:54N 58°12' W 153°06'7 7.5 310 / 7 -3.7 3.6
2017-Mar-18 15:00N 58°18' W 153°12'767.8 320 / 121005.0 -4.2-9.4 3.6
2017-Mar-18 14:54N 58°12' W 153°06'1213.3 320 / 15 -4.2 3.7
2017-Mar-18 14:00N 58°24' W 153°06'0 0.0 300 / 111005.5 -4.6-11.6 4.0
2017-Mar-18 13:55N 58°24' W 153°06'1112.2 300 / 13 -4.7 3.7
2017-Mar-18 13:00N 58°30' W 153°24'347.0 300 / 191005.2 -5.4-14.7 3.0
2017-Mar-18 12:56N 58°30' W 153°18'1313.4 300 / 18 -5.3 2.5
2017-Mar-18 12:00N 58°30' W 152°54'362.7 290 / 191004.010.8 -3.6-12.7-4.0
2017-Mar-18 11:57N 58°30' W 153°00'9 9.1 280 / 16 -3.5 3.9
2017-Mar-18 11:00N 58°36' W 152°48'7203.0 330 / 151006.2 -3.7-8.2 4.3
2017-Mar-18 10:58N 58°30' W 152°42'1414.0 340 / 16 -3.9 4.3
2017-Mar-18 10:00N 58°42' W 152°30'0 0.0 320 / 351004.9 -5.8-9.2 4.5
2017-Mar-18 09:59N 58°42' W 152°30'9 9.5 320 / 36 -6.2 4.5
2017-Mar-18 09:00N 58°42' W 152°12'0 0.0 330 / 291005.4 -5.0-8.9 4.4
2017-Mar-18 08:59N 58°42' W 152°12'3 3.2 320 / 26 -4.9 4.5
2017-Mar-18 08:00N 58°42' W 152°06'719.3 320 / 301005.5 -5.2-9.0 4.8
2017-Mar-18 07:39N 58°36' W 152°00'3 4.8 320 / 29 -5.2 5.0
2017-Mar-18 07:00N 58°36' W 151°54'3 9.4 310 / 261005.8 -4.2-7.6 5.0
2017-Mar-18 06:40N 58°36' W 151°48'6 9.0 310 / 26 -4.5 5.1
2017-Mar-18 06:00N 58°30' W 151°48'618.0 300 / 331005.8 -4.6-8.2 4.8
2017-Mar-18 05:40N 58°24' W 151°48'710.2 310 / 30 -3.9 4.8
2017-Mar-18 05:00N 58°18' W 151°54'2512.4 310 / 301006.8 -5.1-9.8 3.3
2017-Mar-18 03:00N 57°54' W 152°06'621.2 340 / 171007.7 -3.2-10.6 3.7
2017-Mar-18 02:43N 57°48' W 152°06'6 8.9 320 / 19 -2.5 3.5
2017-Mar-18 02:00N 57°48' W 152°18'622.5 330 / 141008.2 -2.0-11.4 3.1
2017-Mar-18 01:44N 57°42' W 152°18'7 9.3 320 / 17 -0.6 3.1
2017-Mar-18 01:00N 57°48' W 152°24'622.5 220 / 91008.5 -1.5-12.1 2.3
2017-Mar-18 00:44N 57°42' W 152°24'6 8.2 240 / 10 -1.6 2.3
2017-Mar-18 00:00N 57°48' W 152°24'0 0.0 240 / 81008.8 -1.4-12.2 2.3
2017-Mar-17 23:00N 57°48' W 152°24'625.7 230 / 41009.3 -1.4-11.1 2.3
2017-Mar-17 22:46N 57°42' W 152°24'6 7.8 200 / 4 -1.7 2.3
2017-Mar-17 22:00N 57°48' W 152°24'627.7 190 / 61009.8 -1.6-11.7 2.3
2017-Mar-17 21:47N 57°42' W 152°24'6 7.7 220 / 5 -1.6 2.2
2017-Mar-17 21:00N 57°48' W 152°24'630.0 170 / 31010.4 -1.5-11.4 2.2
2017-Mar-17 20:48N 57°42' W 152°24'6 7.5 210 / 9 -2.4 2.1
2017-Mar-17 20:00N 57°48' W 152°24'630.0 210 / 71010.7 -2.6-11.0 2.3
2017-Mar-17 19:48N 57°42' W 152°24'6 7.5 230 / 5 -2.7 2.3
2017-Mar-17 19:00N 57°48' W 152°24'632.7 240 / 71011.1 -3.2-11.0 2.1
2017-Mar-17 18:49N 57°42' W 152°24'6 7.3 200 / 7 -3.4 2.1
2017-Mar-17 18:00N 57°48' W 152°24'636.0 260 / 101011.1 -4.5-11.2 2.1
2017-Mar-17 17:50N 57°42' W 152°24'6 7.2 310 / 6 -4.6 2.1
2017-Mar-17 17:00N 57°48' W 152°24'640.0 210 / 41010.9 -4.4-11.0 2.1
2017-Mar-17 16:51N 57°42' W 152°24'6 7.1 250 / 8 -4.8 2.1
2017-Mar-17 16:00N 57°48' W 152°24'640.0 030 / 21011.0 -5.0-11.7 2.3
2017-Mar-17 15:51N 57°42' W 152°24'6 7.1 260 / 5 -4.9 2.3
2017-Mar-17 15:00N 57°48' W 152°24'645.0 220 / 41011.3 -4.7-11.9 2.3
2017-Mar-17 14:52N 57°42' W 152°24'6 6.9 250 / 5 -4.7 2.3
2017-Mar-17 14:00N 57°48' W 152°24'651.4 240 / 51011.7 -4.8-11.5 2.3
2017-Mar-17 13:53N 57°42' W 152°24'6 6.8 220 / 5 -4.6 2.2
2017-Mar-17 13:00N 57°48' W 152°24'660.0 230 / 71011.5 -4.7-12.1 2.1
2017-Mar-17 12:54N 57°42' W 152°24'6 6.7 230 / 7 -4.9 2.1
2017-Mar-17 12:00N 57°48' W 152°24'672.0 220 / 121011.5 -4.6-12.2 2.0
2017-Mar-17 11:55N 57°42' W 152°24'6 6.5 250 / 11 -4.6 2.1
2017-Mar-17 11:00N 57°48' W 152°24'672.0 190 / 31012.0 -4.6-12.2 2.2
2017-Mar-17 10:55N 57°42' W 152°24'6 6.5 190 / 12 -4.4 2.1
2017-Mar-17 10:00N 57°48' W 152°24'690.0 100 / 61011.8 -4.7-12.8 2.3
2017-Mar-17 09:56N 57°42' W 152°24'6 6.4 220 / 11 -4.6 2.3
2017-Mar-17 09:00N 57°48' W 152°24'6120.0 170 / 21012.1 -4.6-12.6 2.3
2017-Mar-17 08:57N 57°42' W 152°24'6 6.3 210 / 5 -4.6 2.3
2017-Mar-17 08:00N 57°48' W 152°24'6180.0 170 / 41012.0 -4.5-14.7 2.3
2017-Mar-17 07:58N 57°42' W 152°24'6 6.2 270 / 9 -4.5 2.3
2017-Mar-17 07:00N 57°48' W 152°24'6360.0 040 / 41012.1 -4.9-15.1 2.2
2017-Mar-17 06:59N 57°42' W 152°24'6 6.1 -4.8 2.2
2017-Mar-17 06:00N 57°48' W 152°24'6360.0 180 / 31011.6 -5.0-14.2 2.1
2017-Mar-17 05:59N 57°42' W 152°24'6 6.1 210 / 5 -5.0 2.1
2017-Mar-17 05:00N 57°48' W 152°24'617.1 160 / 41011.2 -5.0-13.9 2.3
2017-Mar-17 04:39N 57°42' W 152°24'6 9.2 140 / 7 -4.7 2.3
2017-Mar-17 04:00N 57°48' W 152°24'617.1 010 / 41010.6 -4.7-13.8 2.3
2017-Mar-17 03:39N 57°42' W 152°24'6 9.2 150 / 3 -4.4 2.3
2017-Mar-17 03:00N 57°48' W 152°24'618.0 020 / 41009.5 -3.6-13.8 2.2
2017-Mar-17 02:40N 57°42' W 152°24'6 9.0 300 / 6 -3.7 2.3
2017-Mar-17 02:00N 57°48' W 152°24'618.9 180 / 101009.2 -3.0-13.8 2.3
2017-Mar-17 01:41N 57°42' W 152°24'6 8.8 300 / 5 -3.2 2.3
2017-Mar-17 01:00N 57°48' W 152°24'620.0 180 / 51009.3 -2.9-13.5 2.4
2017-Mar-17 00:42N 57°42' W 152°24'6 8.6 230 / 16 -3.2 2.3
2017-Mar-17 00:00N 57°48' W 152°24'0 0.0 110 / 21009.1 -2.2-14.1 2.2
2017-Mar-16 23:00N 57°48' W 152°24'621.2 210 / 61008.9 -2.7-12.9 2.2
2017-Mar-16 22:43N 57°42' W 152°24'6 8.4 210 / 12 -2.9 2.1
2017-Mar-16 22:00N 57°48' W 152°24'622.5 200 / 81008.8 -3.4-13.7 2.2
2017-Mar-16 21:44N 57°42' W 152°24'6 8.2 210 / 9 -3.6 2.3
2017-Mar-16 21:00N 57°48' W 152°24'624.0 200 / 71008.4 -3.3-12.8 2.3
2017-Mar-16 20:45N 57°42' W 152°24'6 8.0 160 / 4 -2.9 2.3
2017-Mar-16 20:00N 57°48' W 152°24'625.7 140 / 31007.8 -3.1-13.0 2.2
2017-Mar-16 19:46N 57°42' W 152°24'6 7.8 210 / 13 -3.9 2.2
2017-Mar-16 19:00N 57°48' W 152°24'625.7 190 / 91007.3 -4.4-13.2 2.2
2017-Mar-16 18:46N 57°42' W 152°24'6 7.8 240 / 14 -5.0 2.2
2017-Mar-16 18:00N 57°48' W 152°24'627.7 210 / 151006.2 -5.0-12.6 2.1
2017-Mar-16 17:47N 57°42' W 152°24'6 7.7 200 / 15 -5.0 2.1
2017-Mar-16 17:00N 57°48' W 152°24'630.0 200 / 101005.4 -5.2-12.7 2.0
2017-Mar-16 16:48N 57°42' W 152°24'6 7.5 240 / 13 -5.3 2.0
2017-Mar-16 16:00N 57°48' W 152°24'632.7 220 / 121004.1 -5.2-12.6 2.1
2017-Mar-16 15:49N 57°42' W 152°24'6 7.3 220 / 9 -5.4 2.1
2017-Mar-16 15:00N 57°48' W 152°24'636.0 170 / 61004.0 -5.5-12.9 2.2
2017-Mar-16 14:50N 57°42' W 152°24'6 7.2 200 / 8 -5.6 2.2
2017-Mar-16 14:00N 57°48' W 152°24'636.0 220 / 121003.0 -5.7-13.3 2.5
2017-Mar-16 13:50N 57°42' W 152°24'6 7.2 210 / 12 -5.6 2.5
2017-Mar-16 13:00N 57°48' W 152°24'640.0 180 / 91002.3 -5.7-14.1 2.5
2017-Mar-16 12:51N 57°42' W 152°24'6 7.1 200 / 6 -5.6 2.5
2017-Mar-16 12:00N 57°48' W 152°24'645.0 140 / 101001.6 -5.4-13.4 2.3
2017-Mar-16 11:52N 57°42' W 152°24'6 6.9 130 / 7 -5.6 2.3
2017-Mar-16 11:00N 57°48' W 152°24'651.4 180 / 81001.0 -5.4-13.3 2.2
2017-Mar-16 10:53N 57°42' W 152°24'6 6.8 180 / 13 -5.4 2.2
2017-Mar-16 10:00N 57°48' W 152°24'651.4 170 / 81000.7 -6.1-14.8 2.4
2017-Mar-16 09:53N 57°42' W 152°24'6 6.8 120 / 6 -5.9 2.4
2017-Mar-16 09:00N 57°48' W 152°24'660.0 230 / 91000.8 -5.9-14.1 2.4
2017-Mar-16 08:54N 57°42' W 152°24'6 6.7 070 / 3 -5.9 2.4
2017-Mar-16 08:00N 57°48' W 152°24'672.0 200 / 101000.3 -6.1-14.4 2.5
2017-Mar-16 07:55N 57°42' W 152°24'6 6.5 200 / 8 -6.0 2.5
2017-Mar-16 07:00N 57°48' W 152°24'690.0 180 / 9999.6 -6.1-14.8 2.4
2017-Mar-16 06:56N 57°42' W 152°24'6 6.4 210 / 15 -6.1 2.4
2017-Mar-16 06:00N 57°48' W 152°24'690.0 250 / 7998.8 -6.1-15.2 2.5
2017-Mar-16 05:56N 57°42' W 152°24'6 6.4 070 / 3 -6.1 2.5
2017-Mar-16 05:00N 57°48' W 152°24'6120.0 200 / 12998.2 -6.4-15.1 2.4
2017-Mar-16 04:57N 57°42' W 152°24'6 6.3 240 / 7 -6.6 2.3
2017-Mar-16 04:00N 57°48' W 152°24'6180.0 180 / 6998.0 -6.9-15.2 2.7
2017-Mar-16 03:58N 57°42' W 152°24'6 6.2 170 / 3 -6.8 2.7
2017-Mar-16 03:00N 57°48' W 152°24'6360.0 170 / 4997.6 -6.9-15.7 2.7
2017-Mar-16 02:59N 57°42' W 152°24'6 6.1 040 / 3 -6.9 2.7
2017-Mar-16 02:00N 57°48' W 152°24'6360.0 230 / 4997.3 -6.5-14.8 2.7
2017-Mar-16 01:59N 57°42' W 152°24'6 6.1 220 / 5 -6.5 2.7
2017-Mar-16 01:00N 57°48' W 152°24'617.1 240 / 11996.9 -6.0-15.5 2.7
2017-Mar-16 00:39N 57°42' W 152°24'6 9.2 220 / 13 -5.9 2.6
2017-Mar-16 00:00N 57°48' W 152°24'0 0.0 220 / 8997.0 -6.7-13.3 2.5
2017-Mar-15 23:00N 57°48' W 152°24'618.0 280 / 9997.1 -6.2-13.3 2.3
2017-Mar-15 22:40N 57°42' W 152°24'6 9.0 300 / 19 -7.2 2.1
2017-Mar-15 22:00N 57°48' W 152°24'618.9 290 / 20997.3 -7.0-12.4 2.6
2017-Mar-15 21:41N 57°42' W 152°24'0 0.0 320 / 19 -7.1 3.3
2017-Mar-15 21:00N 57°42' W 152°24'310.7 320 / 18997.2 -6.8-12.6 3.3
2017-Mar-15 20:42N 57°42' W 152°18'6 8.6 310 / 17 -6.3 3.3
2017-Mar-15 20:00N 57°48' W 152°18'311.3 350 / 24997.0 -6.0-13.5 3.4
2017-Mar-15 19:43N 57°48' W 152°12'7 9.5 340 / 24 -6.0 3.6
2017-Mar-15 19:00N 57°54' W 152°18'724.0 320 / 26997.3 -6.3-12.5 3.5
2017-Mar-15 18:43N 57°48' W 152°12'7 9.5 320 / 22 -6.4 3.5
2017-Mar-15 18:00N 57°54' W 152°18'312.0 320 / 20997.2 -6.4-12.1 3.7
2017-Mar-15 17:44N 57°54' W 152°12'1115.4 340 / 26 -6.0 3.7
2017-Mar-15 17:00N 58°00' W 152°30'624.0 290 / 19998.0 -7.0-13.0 3.5
2017-Mar-15 16:45N 57°54' W 152°30'1012.8 310 / 23 -7.1 3.5
2017-Mar-15 16:00N 57°54' W 152°48'729.1 290 / 15998.4 -7.4-15.0 3.1
2017-Mar-15 15:46N 57°48' W 152°42'6 7.8 290 / 14 -7.5 3.1
2017-Mar-15 15:00N 57°54' W 152°42'0 0.0 300 / 16998.6 -7.2-15.0 3.2
2017-Mar-15 14:47N 57°54' W 152°42'7 8.7 300 / 18 -7.3 3.3
2017-Mar-15 14:00N 58°00' W 152°36'314.7 320 / 23997.9 -5.9-12.2 3.5
2017-Mar-15 13:47N 58°00' W 152°30'0 0.0 310 / 21 -5.8 3.4
2017-Mar-15 13:00N 58°00' W 152°30'315.9 320 / 19998.0 -5.5-12.9 3.7
2017-Mar-15 12:48N 58°00' W 152°24'1011.9 310 / 21 -5.5 3.7
2017-Mar-15 12:00N 58°00' W 152°42'737.0 300 / 15998.8 -5.7-13.1 3.3
2017-Mar-15 11:49N 57°54' W 152°36'0 0.0 300 / 11 -5.8 3.2
2017-Mar-15 11:00N 57°54' W 152°36'319.1 320 / 21998.3 -5.2-13.5 3.3
2017-Mar-15 10:50N 57°54' W 152°30'6 7.2 310 / 20 -4.7 3.3
2017-Mar-15 10:00N 58°00' W 152°30'636.0 320 / 22998.6 -4.6-12.3 3.3
2017-Mar-15 09:50N 57°54' W 152°30'6 7.2 300 / 16 -4.8 3.6
2017-Mar-15 09:00N 58°00' W 152°30'0 0.0 320 / 18998.8 -4.1-14.1 3.5
2017-Mar-15 08:51N 58°00' W 152°30'3 3.7 320 / 18 -4.5 3.7
2017-Mar-15 08:00N 58°00' W 152°24'323.8 310 / 22998.6 -4.1-13.7 3.8
2017-Mar-15 07:52N 58°00' W 152°18'0 0.0 320 / 19 -4.2 3.8
2017-Mar-15 07:00N 58°00' W 152°18'651.4 330 / 18998.4 -4.3-14.5 3.8
2017-Mar-15 06:53N 57°54' W 152°18'7 7.7 330 / 18 -4.3 3.8
2017-Mar-15 06:00N 58°00' W 152°12'651.4 320 / 22998.2 -3.7-13.0 3.8
2017-Mar-15 05:53N 57°54' W 152°12'9 9.9 320 / 22 -4.0 3.8
2017-Mar-15 05:00N 58°00' W 152°24'331.8 320 / 24998.0 -4.0-13.6 3.8
2017-Mar-15 04:54N 58°00' W 152°18'9 9.7 310 / 25 -3.8 3.8
2017-Mar-15 04:00N 58°06' W 152°30'781.5 340 / 19998.0 -4.0-16.3 3.8
2017-Mar-15 03:55N 58°00' W 152°24'6 6.5 340 / 17 -3.9 3.9
2017-Mar-15 03:00N 58°06' W 152°24'690.0 340 / 20997.6 -3.7-14.7 3.8
2017-Mar-15 02:56N 58°00' W 152°24'0 0.0 330 / 23 -3.7 3.8
2017-Mar-15 02:00N 58°00' W 152°24'363.6 330 / 26997.4 -3.3-12.4 4.0
2017-Mar-15 01:57N 58°00' W 152°18'0 0.0 320 / 24 -3.9 3.9
2017-Mar-15 01:00N 58°00' W 152°18'7135.8 340 / 31996.7 -3.3-11.2 4.0
2017-Mar-15 00:57N 57°54' W 152°12'0 0.0 330 / 29 -3.2 4.0
2017-Mar-15 00:00N 57°54' W 152°12'7 6.8 330 / 29996.6 -3.6-10.5 3.8
2017-Mar-14 23:00N 57°48' W 152°06'6360.0 340 / 29997.1 -3.7-9.2 3.7
2017-Mar-14 22:59N 57°42' W 152°06'6 6.5 330 / 27 -3.6 3.7
2017-Mar-14 22:00N 57°42' W 152°18'7 6.8 340 / 22998.0 -3.2-10.6 3.5
2017-Mar-14 21:00N 57°48' W 152°24'690.0 090 / 7998.2 -3.4-10.3 2.7
2017-Mar-14 20:56N 57°42' W 152°24'6 6.4 080 / 9 -3.5 2.7
2017-Mar-14 20:00N 57°48' W 152°24'6120.0 080 / 8998.3 -3.3-10.7 2.6
2017-Mar-14 19:57N 57°42' W 152°24'6 6.3 080 / 8 -3.3 2.6
2017-Mar-14 19:00N 57°48' W 152°24'6180.0 210 / 11999.0 -3.3-10.4 2.6
2017-Mar-14 18:58N 57°42' W 152°24'6 6.2 170 / 7 -3.0 2.6
2017-Mar-14 18:00N 57°48' W 152°24'6360.0 190 / 6999.0 -2.7-10.4 2.5
2017-Mar-14 17:59N 57°42' W 152°24'6 6.1 250 / 6 -2.9 2.5
2017-Mar-14 17:00N 57°48' W 152°24'0 0.0 190 / 12999.0 -2.8-10.8 2.5
2017-Mar-14 16:00N 57°48' W 152°24'   180 / 10998.9 -2.7-11.3 2.3

Dump ship's entire track history